^^
Station Historical Data
Daily Summary for July 26, 2017 Units:  Metric    English   Both
« Previous Day
Next Day »
Daily Weekly Monthly Yearly Custom
  High: Low: Average:
Temperature: 19 °C 0 °C 5.9 °C
Dew Point: 4.9 °C -2.7 °C 0.8 °C
Humidity: 92% 23% 76%
Wind Speed: 22.7km/h 0km/h 2.9km/h
Wind Gust: 30.6km/h - -
Wind- - WNW
Pressure: 1028.7 hPa 1023.9 hPa -
Precipitation: 0 mm    
Historical Graphs
 
 
Tabular Data for July 26, 2017
Time Temperature Dew Point Pressure Wind Wind Speed Wind Gust Humidity Rainfall Rate (Hourly) solar Conditions
00:01 5.6 °C 2.4 °C 1025.3 hPa Calm     80% 0 mm 0.0 W/m2
00:16 5.1 °C 2.3 °C 1024.9 hPa Calm     82% 0 mm 0.0 W/m2
00:21 5 °C 2.2 °C 1024.9 hPa Calm     82% 0 mm 0.0 W/m2
00:27 4.8 °C 2 °C 1024.9 hPa Calm     82% 0 mm 0.0 W/m2
00:32 4.6 °C 1.8 °C 1024.9 hPa Calm     82% 0 mm 0.0 W/m2
00:42 4.5 °C 1.9 °C 1024.9 hPa Calm     83% 0 mm 0.0 W/m2
00:47 4.1 °C 1.5 °C 1024.9 hPa Calm     83% 0 mm 0.0 W/m2
00:52 3.8 °C 1.2 °C 1024.9 hPa Calm     83% 0 mm 0.0 W/m2
00:57 3.8 °C 1.5 °C 1024.9 hPa Calm     85% 0 mm 0.0 W/m2
01:03 3.8 °C 1.3 °C 1024.9 hPa Calm     84% 0 mm 0.0 W/m2
01:08 3.6 °C 1.2 °C 1025.3 hPa Calm     84% 0 mm 0.0 W/m2
01:13 3.4 °C 1.1 °C 1025.3 hPa Calm     85% 0 mm 0.0 W/m2
01:18 3.5 °C 1.4 °C 1025.3 hPa Calm     86% 0 mm 0.0 W/m2
01:23 3.7 °C 1.6 °C 1025.3 hPa Calm     86% 0 mm 0.0 W/m2
01:28 3.7 °C 1.9 °C 1024.9 hPa Calm     88% 0 mm 0.0 W/m2
01:33 3.8 °C 1.8 °C 1024.9 hPa Calm     87% 0 mm 0.0 W/m2
01:38 3.8 °C 2.6 °C 1024.9 hPa Calm     92% 0 mm 0.0 W/m2
01:44 3.7 °C 1.4 °C 1024.9 hPa Calm     85% 0 mm 0.0 W/m2
01:49 3.5 °C 1.2 °C 1024.9 hPa Calm     85% 0 mm 0.0 W/m2
01:54 3.3 °C 1 °C 1024.9 hPa Calm     85% 0 mm 0.0 W/m2
01:59 3 °C 0.7 °C 1024.9 hPa Calm     85% 0 mm 0.0 W/m2
02:04 2.9 °C 0.8 °C 1024.9 hPa Calm     86% 0 mm 0.0 W/m2
02:09 2.7 °C 0.6 °C 1024.9 hPa Calm     86% 0 mm 0.0 W/m2
02:15 2.5 °C 0.4 °C 1024.9 hPa Calm     86% 0 mm 0.0 W/m2
02:20 2.4 °C 0.5 °C 1024.9 hPa Calm     87% 0 mm 0.0 W/m2
02:25 2.4 °C 0.5 °C 1024.9 hPa Calm     87% 0 mm 0.0 W/m2
02:35 2.2 °C 1 °C 1025.3 hPa Calm     92% 0 mm 0.0 W/m2
02:45 2.1 °C 0.3 °C 1025.3 hPa Calm     88% 0 mm 0.0 W/m2
02:51 2.1 °C 0.3 °C 1025.3 hPa Calm     88% 0 mm 0.0 W/m2
02:56 1.9 °C 0 °C 1025.3 hPa Calm     87% 0 mm 0.0 W/m2
03:01 1.8 °C -0.1 °C 1025.3 hPa Calm     87% 0 mm 0.0 W/m2
03:06 1.6 °C -0.3 °C 1025.3 hPa Calm     87% 0 mm 0.0 W/m2
03:12 1.4 °C -0.5 °C 1024.9 hPa Calm     87% 0 mm 0.0 W/m2
03:17 1.4 °C -0.4 °C 1024.9 hPa Calm     88% 0 mm 0.0 W/m2
03:22 1.4 °C -0.2 °C 1025.3 hPa Calm     89% 0 mm 0.0 W/m2
03:28 1.5 °C -0.1 °C 1025.3 hPa Calm     89% 0 mm 0.0 W/m2
03:33 1.4 °C -0.4 °C 1025.3 hPa Calm     88% 0 mm 0.0 W/m2
03:38 1.3 °C -0.3 °C 1025.3 hPa Calm     89% 0 mm 0.0 W/m2
03:43 1.2 °C -0.6 °C 1025.3 hPa Calm     88% 0 mm 0.0 W/m2
03:48 1.2 °C -0.4 °C 1025.3 hPa Calm     89% 0 mm 0.0 W/m2
03:53 1.3 °C -0.2 °C 1025.3 hPa Calm     90% 0 mm 0.0 W/m2
03:59 1.4 °C -0.1 °C 1025.3 hPa Calm     90% 0 mm 0.0 W/m2
04:04 1.6 °C 0.1 °C 1024.9 hPa Calm     90% 0 mm 0.0 W/m2
04:09 1.7 °C 0.4 °C 1025.3 hPa Calm     91% 0 mm 0.0 W/m2
04:19 2 °C 0.7 °C 1025.3 hPa Calm     91% 0 mm 0.0 W/m2
04:24 2.3 °C 1.1 °C 1025.3 hPa Calm     92% 0 mm 0.0 W/m2
04:29 2.3 °C 0.8 °C 1025.3 hPa Calm     90% 0 mm 0.0 W/m2
04:34 2.2 °C 0.9 °C 1025.6 hPa Calm     91% 0 mm 0.0 W/m2
04:39 2.4 °C 1.1 °C 1025.3 hPa Calm     91% 0 mm 0.0 W/m2
04:45 2.3 °C 0.8 °C 1025.3 hPa Calm     90% 0 mm 0.0 W/m2
04:50 2.2 °C 0.7 °C 1025.3 hPa Calm     90% 0 mm 0.0 W/m2
04:55 2.2 °C 0.9 °C 1025.3 hPa Calm     91% 0 mm 0.0 W/m2
05:01 2.1 °C 0.6 °C 1025.6 hPa Calm     90% 0 mm 0.0 W/m2
05:06 2.2 °C 0.9 °C 1025.6 hPa Calm     91% 0 mm 0.0 W/m2
05:11 2 °C 0.5 °C 1025.6 hPa Calm     90% 0 mm 0.0 W/m2
05:16 1.9 °C 0.4 °C 1026 hPa Calm     90% 0 mm 0.0 W/m2
05:21 1.7 °C 0.1 °C 1025.6 hPa Calm     89% 0 mm 0.0 W/m2
05:26 1.5 °C 0 °C 1026 hPa Calm     90% 0 mm 0.0 W/m2
05:32 1.5 °C 0 °C 1026 hPa Calm     90% 0 mm 0.0 W/m2
05:37 1.4 °C -0.2 °C 1026.3 hPa Calm     89% 0 mm 0.0 W/m2
05:42 1.1 °C -0.7 °C 1026.3 hPa Calm     88% 0 mm 0.0 W/m2
05:52 0.8 °C -1 °C 1026.3 hPa Calm     88% 0 mm 0.0 W/m2
05:57 0.8 °C -0.7 °C 1026.3 hPa Calm     90% 0 mm 0.0 W/m2
06:02 0.8 °C -0.8 °C 1026.6 hPa Calm     89% 0 mm 0.0 W/m2
06:07 0.6 °C -1 °C 1026.6 hPa Calm     89% 0 mm 0.0 W/m2
06:14 0.7 °C -0.6 °C 1026.6 hPa Calm     91% 0 mm 0.0 W/m2
06:19 0.9 °C -0.6 °C 1026.6 hPa Calm     90% 0 mm 0.0 W/m2
06:28 0.8 °C -0.7 °C 1027 hPa Calm     90% 0 mm 0.0 W/m2
06:33 0.7 °C -1.1 °C 1027 hPa Calm     88% 0 mm 0.0 W/m2
06:39 0.4 °C -1.4 °C 1027 hPa Calm     88% 0 mm 7.0 W/m2
06:44 0.2 °C -1.6 °C 1027 hPa Calm     88% 0 mm 9.0 W/m2
06:49 0 °C -1.7 °C 1027 hPa Calm     88% 0 mm 11.0 W/m2
06:56 0 °C -1.6 °C 1027 hPa Calm     89% 0 mm 12.0 W/m2
07:02 0.1 °C -1.3 °C 1027 hPa Calm     90% 0 mm 14.0 W/m2
07:09 0.6 °C -0.9 °C 1027.3 hPa Calm     90% 0 mm 18.0 W/m2
07:30 2.3 °C 1.1 °C 1027.3 hPa Calm     92% 0 mm 98.0 W/m2
07:44 3.8 °C 1.8 °C 1027.7 hPa Calm     87% 0 mm 158.0 W/m2
07:53 4.7 °C 2.4 °C 1028 hPa Calm     85% 0 mm 195.0 W/m2
08:04 5.7 °C 2.9 °C 1028 hPa Calm     82% 0 mm 236.0 W/m2
08:21 7.6 °C 4 °C 1028.3 hPa Calm     78% 0 mm 290.0 W/m2
08:26 7.6 °C 4 °C 1028.3 hPa Calm     78% 0 mm 290.0 W/m2
08:36 8.8 °C 4.6 °C 1028.3 hPa Calm   9.7 km/h 75% 0 mm 329.0 W/m2
08:46 9.2 °C 4.6 °C 1028.3 hPa South 3.2 km/h 9.7 km/h 73% 0 mm 360.0 W/m2
09:01 9.5 °C 4.7 °C 1028.7 hPa South 7.9 km/h 12.9 km/h 72% 0 mm 385.0 W/m2
09:11 9.8 °C 4.8 °C 1028.7 hPa SSW 1.4 km/h 12.9 km/h 71% 0 mm 406.0 W/m2
09:19 10.3 °C 4.9 °C 1028.7 hPa SSW 6.4 km/h 16.1 km/h 69% 0 mm 432.0 W/m2
09:27 10.6 °C 4.9 °C 1028.3 hPa SSW 13 km/h 17.7 km/h 68% 0 mm 454.0 W/m2
11:03 13.4 °C 4.3 °C 1028 hPa Calm   19.3 km/h 54% 0 mm 610.0 W/m2
11:13 13.5 °C 3.8 °C 1027.7 hPa NW 4.7 km/h 12.9 km/h 52% 0 mm 617.0 W/m2
11:17 13.7 °C 4 °C 1027.3 hPa NW 13 km/h 22.5 km/h 52% 0 mm 621.0 W/m2
11:27 13.8 °C 4.1 °C 1027.7 hPa NW 11.1 km/h 12.9 km/h 52% 0 mm 624.0 W/m2
11:36 14.1 °C 4.1 °C 1027.3 hPa Calm   30.6 km/h 51% 0 mm 631.0 W/m2
11:47 14.4 °C 3.5 °C 1027 hPa NW 13 km/h 19.3 km/h 48% 0 mm 631.0 W/m2
11:56 14.7 °C 3.5 °C 1027 hPa NW 19.5 km/h 19.5 km/h 47% 0 mm 635.0 W/m2
12:07 15.1 °C 3.3 °C 1026.6 hPa NW 14.3 km/h 19.3 km/h 45% 0 mm 635.0 W/m2
12:26 15.7 °C 2.8 °C 1026.3 hPa NW 14.3 km/h 20.9 km/h 42% 0 mm 628.0 W/m2
12:36 16.1 °C 1 °C 1025.6 hPa NW 20.9 km/h 20.9 km/h 36% 0 mm 628.0 W/m2
12:47 16.4 °C 2 °C 1025.6 hPa Calm   24.1 km/h 38% 0 mm 619.0 W/m2
12:59 16.7 °C 1.6 °C 1025.3 hPa NNW 19.5 km/h 19.5 km/h 36% 0 mm 610.0 W/m2
13:08 17.1 °C -1.1 °C 1025.3 hPa NNW 17.7 km/h 29 km/h 29% 0 mm 596.0 W/m2
13:18 17.3 °C -0.9 °C 1024.9 hPa NNW 20.9 km/h 25.7 km/h 29% 0 mm 582.0 W/m2
13:48 17.7 °C -2.6 °C 1024.6 hPa NNW 19.5 km/h 22.5 km/h 25% 0 mm 543.0 W/m2
13:58 17.6 °C -1.1 °C 1024.6 hPa NNW 20.9 km/h 20.9 km/h 28% 0 mm 526.0 W/m2
14:09 17.6 °C -1.1 °C 1024.6 hPa NNW 7.9 km/h 22.5 km/h 28% 0 mm 504.0 W/m2
14:38 18.1 °C -1.7 °C 1024.3 hPa NNW 7.9 km/h 14.5 km/h 26% 0 mm 443.0 W/m2
14:49 18.4 °C -1.5 °C 1023.9 hPa NNW 11.1 km/h 14.5 km/h 26% 0 mm 418.0 W/m2
14:54 18.6 °C -1.8 °C 1023.9 hPa NNW 22.7 km/h 22.7 km/h 25% 0 mm 388.0 W/m2
15:04 18.6 °C -1.8 °C 1023.9 hPa NNW 13 km/h 13 km/h 25% 0 mm 366.0 W/m2
15:23 18.9 °C -2.1 °C 1023.9 hPa NNW 9.7 km/h 12.9 km/h 24% 0 mm 322.0 W/m2
15:32 19 °C -2 °C 1023.9 hPa NNW 14.3 km/h 19.3 km/h 24% 0 mm 295.0 W/m2
15:41 18.9 °C -2.7 °C 1023.9 hPa Calm   8 km/h 23% 0 mm 265.0 W/m2
Canyon Roadhouse, Fishriver Canyon, Namibia
Compliments of Weather Underground - 2.25 mb